Time;durP1;ratioP1;P1;durP2;ratioP2;P2;SDS_P1;SDS_P2;PMS_P1;PMS_P2;Temp;Humidity;BMP_temperature;BMP_pressure;BME280_temperature;BME280_humidity;BME280_pressure;Samples;Min_cycle;Max_cycle;Signal;HPM_P1;HPM_P2
2024/04/07 00:02:07;;;;;;;9.97;5.00;;;;;;;12.35;87.23;100617.55;123131;1099;104300;-73
2024/04/07 00:04:37;;;;;;;11.37;5.17;;;;;;;12.35;87.17;100625.44;123099;1099;104280;-74
2024/04/07 00:07:07;;;;;;;8.77;5.13;;;;;;;12.32;87.17;100633.23;123299;1099;104281;-72
2024/04/07 00:09:38;;;;;;;10.90;5.60;;;;;;;12.27;86.99;100633.09;123306;1099;104281;-73
2024/04/07 00:12:09;;;;;;;12.03;6.40;;;;;;;12.25;87.20;100641.77;123425;1099;104344;-72
2024/04/07 00:14:40;;;;;;;10.60;5.67;;;;;;;12.23;87.01;100636.46;123558;1099;104277;-72
2024/04/07 00:17:10;;;;;;;11.27;5.80;;;;;;;12.23;87.38;100650.53;123418;1099;104259;-73
2024/04/07 00:19:40;;;;;;;11.80;5.73;;;;;;;12.20;87.36;100658.33;123388;1099;104338;-73
2024/04/07 00:22:12;;;;;;;11.50;5.47;;;;;;;12.21;87.40;100651.31;123206;1099;104391;-73
2024/04/07 00:24:45;;;;;;;10.05;5.10;;;;;;;12.23;87.36;100650.53;123116;1099;104550;-73
2024/04/07 00:27:16;;;;;;;10.43;4.90;;;;;;;12.24;88.30;100659.30;123148;1099;104268;-73
2024/04/07 00:29:48;;;;;;;9.55;4.50;;;;;;;12.22;88.23;100666.27;123105;1099;104807;-73
2024/04/07 00:32:19;;;;;;;8.67;4.50;;;;;;;12.19;87.88;100661.79;123432;1099;104236;-73
2024/04/07 00:34:51;;;;;;;8.37;4.43;;;;;;;12.18;88.09;100662.62;123471;1099;104289;-73
2024/04/07 00:37:22;;;;;;;7.57;4.33;;;;;;;12.16;88.01;100660.81;123401;1099;104245;-73
2024/04/07 00:39:52;;;;;;;9.10;4.13;;;;;;;12.16;88.24;100666.07;123359;1099;104767;-73
2024/04/07 00:42:22;;;;;;;5.80;3.77;;;;;;;12.16;88.28;100668.70;123384;1099;104647;-73
2024/04/07 00:44:53;;;;;;;6.87;3.83;;;;;;;12.13;87.95;100666.86;123385;1099;104780;-72
2024/04/07 00:47:24;;;;;;;6.57;3.70;;;;;;;12.14;88.24;100670.37;123465;1099;104239;-73
2024/04/07 00:49:54;;;;;;;6.60;3.70;;;;;;;12.13;88.24;100681.76;123114;1099;104677;-73
2024/04/07 00:52:24;;;;;;;6.77;3.70;;;;;;;12.12;88.28;100683.47;123419;1099;104271;-73
2024/04/07 00:54:55;;;;;;;6.33;3.80;;;;;;;12.11;88.29;100683.45;123402;1099;104261;-72
2024/04/07 00:57:27;;;;;;;5.73;3.50;;;;;;;12.10;88.38;100679.03;123268;1097;104745;-72
2024/04/07 00:59:58;;;;;;;6.50;3.70;;;;;;;12.09;88.30;100690.38;123183;1099;104467;-72
2024/04/07 01:02:29;;;;;;;5.33;3.40;;;;;;;12.06;88.21;100680.67;123651;1099;108012;-73
2024/04/07 01:04:59;;;;;;;9.30;3.90;;;;;;;12.04;88.43;100692.86;123139;1099;104270;-73
2024/04/07 01:07:30;;;;;;;9.03;4.00;;;;;;;12.01;88.43;100688.41;123146;1099;104357;-72
2024/04/07 01:10:02;;;;;;;10.20;4.00;;;;;;;12.00;88.53;100689.25;123075;1099;104318;-73
2024/04/07 01:12:32;;;;;;;7.97;3.37;;;;;;;12.00;88.30;100690.99;123103;1099;104226;-73
2024/04/07 01:15:03;;;;;;;6.80;3.80;;;;;;;11.98;88.51;100685.69;123134;1099;104492;-73
2024/04/07 01:17:34;;;;;;;6.00;3.27;;;;;;;11.98;88.63;100690.94;123145;1099;104358;-73
2024/04/07 01:20:06;;;;;;;7.20;3.50;;;;;;;11.98;88.48;100687.40;123090;1099;104351;-73
2024/04/07 01:22:36;;;;;;;7.40;3.63;;;;;;;11.98;88.36;100696.20;123336;1099;104254;-73
2024/04/07 01:25:07;;;;;;;6.10;3.47;;;;;;;11.97;88.59;100688.27;123525;1099;104423;-72
2024/04/07 01:27:37;;;;;;;5.93;3.30;;;;;;;11.96;88.83;100692.61;123436;1099;104415;-72
2024/04/07 01:30:10;;;;;;;7.30;3.70;;;;;;;11.95;88.80;100696.10;123106;1099;104303;-73
2024/04/07 01:32:42;;;;;;;5.80;3.70;;;;;;;11.93;88.56;100696.88;123389;1099;104348;-72
2024/04/07 01:35:12;;;;;;;6.93;3.83;;;;;;;11.93;88.89;100688.98;123125;1099;104386;-73
2024/04/07 01:37:42;;;;;;;5.60;3.77;;;;;;;11.92;89.00;100692.42;123090;1099;104453;-72
2024/04/07 01:40:14;;;;;;;5.90;3.70;;;;;;;11.91;88.95;100693.28;123121;1099;104396;-72
2024/04/07 01:42:44;;;;;;;7.90;4.10;;;;;;;11.90;88.99;100696.74;123096;1102;104329;-73
2024/04/07 01:45:15;;;;;;;9.57;4.63;;;;;;;11.90;89.29;100699.38;123405;1099;104322;-73
2024/04/07 01:47:45;;;;;;;7.60;3.97;;;;;;;11.88;89.43;100700.20;123401;1099;104759;-72
2024/04/07 01:50:15;;;;;;;6.87;4.10;;;;;;;11.86;89.26;100701.90;123102;1099;104695;-74
2024/04/07 01:52:46;;;;;;;7.67;4.53;;;;;;;11.88;89.34;100705.46;123372;1098;104345;-73
2024/04/07 01:55:16;;;;;;;9.17;4.30;;;;;;;11.85;89.42;100705.36;123396;1099;104268;-73
2024/04/07 01:57:46;;;;;;;11.43;4.33;;;;;;;11.81;89.53;100707.83;123445;1099;104341;-73
2024/04/07 02:00:17;;;;;;;8.07;4.40;;;;;;;11.79;89.51;100718.30;123457;1099;104309;-72
2024/04/07 02:02:47;;;;;;;7.03;4.30;;;;;;;11.76;89.21;100723.45;123386;1099;104284;-72
2024/04/07 02:05:18;;;;;;;8.37;4.40;;;;;;;11.74;89.65;100724.26;123086;1099;104434;-73
2024/04/07 02:07:48;;;;;;;7.80;4.30;;;;;;;11.70;89.58;100723.23;123426;1099;104289;-73
2024/04/07 02:10:19;;;;;;;8.13;4.40;;;;;;;11.68;89.65;100730.19;123155;1099;104261;-73
2024/04/07 02:12:49;;;;;;;11.07;5.00;;;;;;;11.64;89.44;100731.83;123391;1099;104353;-73
2024/04/07 02:15:20;;;;;;;9.50;4.70;;;;;;;11.63;89.78;100737.02;123415;1099;104236;-73
2024/04/07 02:17:50;;;;;;;10.53;5.40;;;;;;;11.60;89.56;100723.78;123386;1099;104362;-73
2024/04/07 02:20:21;;;;;;;8.73;4.73;;;;;;;11.58;89.98;100735.98;123515;1099;104319;-73
2024/04/07 02:22:52;;;;;;;8.03;4.50;;;;;;;11.55;89.96;100725.36;123334;1099;104271;-73
2024/04/07 02:25:23;;;;;;;7.67;4.63;;;;;;;11.54;89.83;100736.70;123131;1099;104350;-73
2024/04/07 02:27:53;;;;;;;9.70;4.97;;;;;;;11.49;89.88;100736.53;123177;1099;104271;-74
2024/04/07 02:30:23;;;;;;;9.70;5.00;;;;;;;11.47;90.01;100735.59;123092;1099;104626;-73
2024/04/07 02:32:53;;;;;;;9.80;5.05;;;;;;;11.45;90.11;100735.55;123316;1099;104206;-74
2024/04/07 02:35:24;;;;;;;10.67;5.00;;;;;;;11.44;89.94;100746.88;123380;1099;104348;-74
2024/04/07 02:37:54;;;;;;;10.40;5.13;;;;;;;11.43;90.05;100745.08;123413;1099;104242;-74
2024/04/07 02:40:25;;;;;;;11.60;5.30;;;;;;;11.41;90.14;100746.77;123415;1099;104277;-73
2024/04/07 02:42:55;;;;;;;9.13;4.93;;;;;;;11.40;90.03;100742.34;123269;1099;104357;-72
2024/04/07 02:48:13;;;;;;;9.80;5.07;;;;;;;11.39;90.44;100752.80;123429;1099;104238;-74
2024/04/07 02:50:43;;;;;;;12.85;5.60;;;;;;;11.39;90.52;100753.71;123066;1099;104644;-73
2024/04/07 02:53:13;;;;;;;10.57;5.07;;;;;;;11.39;90.20;100755.42;123119;1099;104285;-73
2024/04/07 02:55:44;;;;;;;10.70;5.10;;;;;;;11.39;90.51;100758.05;123379;1099;104325;-73
2024/04/07 02:58:14;;;;;;;11.20;5.13;;;;;;;11.41;90.73;100766.91;123143;1099;104335;-73
2024/04/07 03:00:44;;;;;;;10.57;5.53;;;;;;;11.42;90.78;100759.08;123410;1099;104274;-73
2024/04/07 03:03:14;;;;;;;10.45;5.50;;;;;;;11.44;90.45;100769.64;123374;1099;104273;-73
2024/04/07 03:05:45;;;;;;;12.43;5.57;;;;;;;11.41;90.99;100773.05;123108;1099;104383;-73
2024/04/07 03:08:15;;;;;;;10.77;5.60;;;;;;;11.42;90.86;100777.47;123394;1099;104396;-73
2024/04/07 03:10:55;;;;;;;12.93;5.90;;;;;;;11.45;90.99;100774.95;123377;1099;104354;-73
2024/04/07 03:13:26;;;;;;;14.05;6.10;;;;;;;11.45;91.00;100777.58;123392;1099;104322;-73
2024/04/07 03:15:56;;;;;;;13.70;6.13;;;;;;;11.46;90.71;100771.47;123181;1099;104690;-73
2024/04/07 03:18:27;;;;;;;12.57;6.27;;;;;;;11.47;90.78;100782.89;123446;1099;104274;-73
2024/04/07 03:20:58;;;;;;;11.13;5.77;;;;;;;11.46;91.05;100774.09;123242;1098;104389;-74
2024/04/07 03:23:28;;;;;;;13.07;6.00;;;;;;;11.44;90.56;100781.04;123424;1099;104216;-72
2024/04/07 03:25:58;;;;;;;10.57;5.50;;;;;;;11.39;90.88;100781.70;123387;1099;104291;-73
2024/04/07 03:28:28;;;;;;;11.73;5.87;;;;;;;11.36;91.04;100777.24;123494;1097;104261;-74
2024/04/07 03:30:59;;;;;;;10.83;6.17;;;;;;;11.36;91.17;100771.99;123428;1099;104355;-74
2024/04/07 03:33:30;;;;;;;9.83;5.73;;;;;;;11.36;91.08;100777.24;123381;1099;104348;-74
2024/04/07 03:36:07;;;;;;;12.50;5.77;;;;;;;11.37;91.50;100789.52;123508;1099;104270;-73
2024/04/07 03:38:37;;;;;;;12.70;6.40;;;;;;;11.35;91.03;100795.58;123399;1099;104220;-73
2024/04/07 03:41:07;;;;;;;15.35;6.55;;;;;;;11.29;91.08;100798.86;123421;1099;104360;-73
2024/04/07 03:43:37;;;;;;;13.33;6.03;;;;;;;11.23;91.09;100807.39;123412;1099;104393;-73
2024/04/07 03:46:10;;;;;;;11.80;6.07;;;;;;;11.20;91.54;100814.27;123132;1099;104635;-73
2024/04/07 03:48:40;;;;;;;11.50;6.63;;;;;;;11.18;91.66;100813.33;123403;1099;104220;-73
2024/04/07 03:51:10;;;;;;;13.80;6.20;;;;;;;11.17;91.27;100822.92;123416;1099;104370;-73
2024/04/07 03:53:40;;;;;;;13.50;6.40;;;;;;;11.18;91.48;100816.84;123446;1099;104322;-74
2024/04/07 03:56:14;;;;;;;16.60;6.53;;;;;;;11.22;91.85;100823.09;123392;1099;104274;-73
2024/04/07 03:58:44;;;;;;;10.50;6.33;;;;;;;11.26;91.39;100827.64;123400;1099;104447;-73
2024/04/07 04:01:15;;;;;;;13.03;6.60;;;;;;;11.29;91.69;100827.76;123388;1099;104338;-73
2024/04/07 04:03:45;;;;;;;13.50;6.47;;;;;;;11.31;91.75;100834.88;123461;1098;104303;-73
2024/04/07 04:06:18;;;;;;;14.63;6.60;;;;;;;11.35;91.87;100838.50;123352;1099;104313;-74
2024/04/07 04:08:48;;;;;;;13.20;6.10;;;;;;;11.39;92.06;100836.87;123440;1099;104261;-74
2024/04/07 04:11:18;;;;;;;12.03;6.03;;;;;;;11.41;91.83;100836.11;123195;1099;104402;-74
2024/04/07 04:13:50;;;;;;;8.93;5.83;;;;;;;11.46;91.92;100837.16;123096;1099;104405;-73
2024/04/07 04:16:20;;;;;;;11.90;6.40;;;;;;;11.50;92.08;100846.96;123392;1099;111611;-72
2024/04/07 04:18:53;;;;;;;12.33;6.23;;;;;;;11.59;92.46;100845.50;123425;1098;104383;-73
2024/04/07 04:21:23;;;;;;;12.63;6.40;;;;;;;11.65;92.47;100849.25;123444;1099;104266;-73
2024/04/07 04:23:53;;;;;;;11.03;6.30;;;;;;;11.69;92.24;100864.30;123370;1099;104242;-73
2024/04/07 04:26:24;;;;;;;12.93;6.53;;;;;;;11.73;92.30;100864.42;123131;1099;102176;-73
2024/04/07 04:28:54;;;;;;;14.90;6.33;;;;;;;11.76;92.38;100868.05;123438;1099;104369;-73
2024/04/07 04:31:24;;;;;;;14.43;6.87;;;;;;;11.75;92.26;100873.25;123383;1099;104322;-73
2024/04/07 04:33:57;;;;;;;11.73;6.27;;;;;;;11.75;92.55;100874.16;123487;1099;104418;-73
2024/04/07 04:36:27;;;;;;;13.17;6.43;;;;;;;11.76;92.46;100878.56;123417;1099;104418;-73
2024/04/07 04:38:57;;;;;;;11.85;6.40;;;;;;;11.78;92.47;100875.98;123432;1099;104758;-73
2024/04/07 04:41:27;;;;;;;10.93;5.83;;;;;;;11.83;92.80;100884.96;123552;1099;104367;-73
2024/04/07 04:43:58;;;;;;;12.20;6.00;;;;;;;11.86;92.80;100891.22;123311;1099;104347;-72
2024/04/07 04:46:28;;;;;;;12.57;6.57;;;;;;;11.90;92.40;100891.33;123493;1099;104431;-73
2024/04/07 04:48:59;;;;;;;12.60;6.40;;;;;;;11.98;92.75;100897.79;123156;1099;104623;-73
2024/04/07 04:51:29;;;;;;;10.43;6.50;;;;;;;12.06;92.80;100893.73;123187;1099;104357;-73
2024/04/07 04:53:59;;;;;;;13.23;6.00;;;;;;;12.10;92.65;100911.39;123628;1099;104489;-73
2024/04/07 04:56:29;;;;;;;11.67;6.30;;;;;;;12.15;92.62;100901.03;123333;1097;104271;-73
2024/04/07 04:59:02;;;;;;;13.35;6.00;;;;;;;12.23;92.90;100913.62;123304;1101;104329;-72
2024/04/07 05:01:33;;;;;;;12.53;6.33;;;;;;;12.32;92.75;100910.41;123477;1099;104265;-73
2024/04/07 05:04:04;;;;;;;14.97;6.43;;;;;;;12.43;92.68;100918.68;123443;1099;104341;-73
2024/04/07 05:06:34;;;;;;;12.00;6.27;;;;;;;12.56;93.00;100914.75;123193;1099;104364;-73
2024/04/07 05:09:05;;;;;;;10.73;5.60;;;;;;;12.70;93.17;100907.30;123436;1099;104386;-73
2024/04/07 05:11:35;;;;;;;13.07;6.27;;;;;;;12.88;93.26;100921.08;123456;1099;104329;-73
2024/04/07 05:14:06;;;;;;;13.50;5.97;;;;;;;13.06;93.34;100914.64;123368;1099;104382;-73
2024/04/07 05:16:36;;;;;;;12.87;6.53;;;;;;;13.19;92.91;100919.44;123363;1097;104309;-73
2024/04/07 05:19:08;;;;;;;12.43;5.87;;;;;;;13.36;93.14;100921.76;123275;1099;104271;-73
2024/04/07 05:21:38;;;;;;;12.50;5.80;;;;;;;13.51;93.43;100922.23;123432;1098;104644;-73
2024/04/07 05:24:09;;;;;;;13.43;6.10;;;;;;;13.65;93.79;100918.26;123394;1098;104386;-72
2024/04/07 05:26:40;;;;;;;11.37;5.60;;;;;;;13.80;93.02;100923.07;123079;1099;104419;-73
2024/04/07 05:29:10;;;;;;;12.77;5.83;;;;;;;13.90;93.76;100916.34;123486;1099;104238;-72
2024/04/07 05:31:40;;;;;;;10.37;5.50;;;;;;;14.00;93.80;100920.12;123403;1099;104226;-72
2024/04/07 05:34:10;;;;;;;12.20;6.20;;;;;;;14.08;92.66;100928.27;123397;1099;104344;-72
2024/04/07 05:36:41;;;;;;;11.77;5.90;;;;;;;14.13;93.30;100931.92;123480;1099;104293;-72
2024/04/07 05:39:11;;;;;;;12.90;5.70;;;;;;;14.19;92.77;100929.45;123366;1099;104335;-72
2024/04/07 05:41:42;;;;;;;10.07;5.47;;;;;;;14.26;93.54;100918.22;123400;1099;104355;-73
2024/04/07 05:44:12;;;;;;;9.30;5.23;;;;;;;14.31;92.12;100920.98;123343;1099;104348;-73
2024/04/07 05:46:42;;;;;;;10.50;5.30;;;;;;;14.31;92.76;100921.87;123308;1099;104357;-72
2024/04/07 05:49:13;;;;;;;11.83;4.57;;;;;;;14.30;92.60;100925.35;123453;1099;104296;-72
2024/04/07 05:51:43;;;;;;;9.40;5.33;;;;;;;14.27;92.07;100927.91;123415;1099;104392;-73
2024/04/07 05:54:14;;;;;;;9.73;5.40;;;;;;;14.22;92.10;100921.62;123397;1099;104343;-72
2024/04/07 05:56:46;;;;;;;11.87;5.57;;;;;;;14.21;92.71;100922.49;123390;1099;104277;-73
2024/04/07 05:59:16;;;;;;;12.13;5.30;;;;;;;14.22;92.04;100933.93;123401;1099;104316;-72
2024/04/07 06:01:46;;;;;;;13.80;5.23;;;;;;;14.25;92.18;100936.66;123386;1099;104460;-73
2024/04/07 06:04:16;;;;;;;10.60;5.30;;;;;;;14.28;92.84;100929.70;123382;1099;104242;-72
2024/04/07 06:06:47;;;;;;;9.00;4.80;;;;;;;14.34;91.97;100934.27;123384;1099;105489;-72
2024/04/07 06:09:18;;;;;;;8.07;4.77;;;;;;;14.38;92.23;100930.84;123421;1099;104229;-72
2024/04/07 06:11:50;;;;;;;12.67;5.27;;;;;;;14.40;91.97;100937.08;123269;1099;104271;-74
2024/04/07 06:14:20;;;;;;;11.47;5.57;;;;;;;14.48;92.85;100934.64;123402;1098;104344;-73
2024/04/07 06:16:50;;;;;;;10.95;5.05;;;;;;;14.60;92.82;100940.28;123176;1099;104425;-73
2024/04/07 06:19:21;;;;;;;13.63;5.17;;;;;;;14.71;92.66;100941.45;123418;1099;104735;-72
2024/04/07 06:21:51;;;;;;;8.87;4.73;;;;;;;14.83;92.48;100942.61;123419;1098;104463;-72
2024/04/07 06:24:21;;;;;;;12.37;5.40;;;;;;;14.92;92.20;100943.73;123502;1099;104268;-73
2024/04/07 06:26:51;;;;;;;9.90;4.87;;;;;;;15.03;92.02;100949.28;123497;1099;105576;-72
2024/04/07 06:29:21;;;;;;;8.23;4.63;;;;;;;15.12;90.84;100961.84;123130;1099;104399;-72
2024/04/07 06:31:52;;;;;;;10.50;4.67;;;;;;;15.24;90.88;100955.97;123417;1099;104245;-72
2024/04/07 06:34:22;;;;;;;7.43;4.67;;;;;;;15.40;91.56;100963.39;123477;1099;104261;-73
2024/04/07 06:36:52;;;;;;;11.10;4.70;;;;;;;15.54;91.12;100961.06;123432;1099;104348;-71
2024/04/07 06:39:23;;;;;;;9.87;4.43;;;;;;;15.65;90.56;100966.59;123406;1098;117886;-74
2024/04/07 06:41:53;;;;;;;9.47;4.50;;;;;;;15.78;91.13;100963.41;123388;1099;104363;-73
2024/04/07 06:44:23;;;;;;;12.63;4.60;;;;;;;15.90;90.45;100972.46;123258;1098;104322;-71
2024/04/07 06:46:53;;;;;;;7.47;4.10;;;;;;;16.07;90.91;100963.11;123369;1099;104264;-72
2024/04/07 06:49:24;;;;;;;8.37;4.20;;;;;;;16.20;90.42;100968.66;123438;1099;104348;-73
2024/04/07 06:51:54;;;;;;;10.17;4.67;;;;;;;16.27;89.90;100965.28;123328;1099;104358;-72
2024/04/07 06:54:24;;;;;;;8.80;4.00;;;;;;;16.40;89.20;100969.06;123406;1099;104501;-72
2024/04/07 06:56:55;;;;;;;9.73;4.10;;;;;;;16.52;88.32;100964.00;123427;1099;104619;-71
2024/04/07 06:59:25;;;;;;;8.73;3.90;;;;;;;16.65;88.14;100975.70;123088;1099;104304;-73
2024/04/07 07:01:56;;;;;;;10.60;4.45;;;;;;;16.77;88.09;100977.70;123146;1099;104252;-72
2024/04/07 07:04:27;;;;;;;9.27;4.23;;;;;;;16.93;87.06;100985.07;123390;1099;104748;-72
2024/04/07 07:06:57;;;;;;;7.80;4.40;;;;;;;17.11;87.10;100981.86;123364;1099;104521;-73
2024/04/07 07:09:29;;;;;;;6.90;3.83;;;;;;;17.20;86.80;100984.66;123160;1099;104229;-73
2024/04/07 07:11:59;;;;;;;8.83;4.37;;;;;;;17.32;86.71;100991.90;123406;1099;104354;-71
2024/04/07 07:14:30;;;;;;;8.07;3.80;;;;;;;17.52;86.24;100986.91;123364;1099;104271;-73
2024/04/07 07:17:00;;;;;;;9.67;4.00;;;;;;;17.72;84.63;100991.62;123411;1099;104326;-72
2024/04/07 07:19:30;;;;;;;6.47;3.70;;;;;;;17.91;84.73;100992.80;123325;1099;105400;-72
2024/04/07 07:22:00;;;;;;;8.55;3.65;;;;;;;18.04;83.69;100992.06;123404;1099;104461;-71
2024/04/07 07:24:30;;;;;;;5.67;3.37;;;;;;;18.20;84.59;100998.48;123427;1099;104239;-73
2024/04/07 07:27:01;;;;;;;6.07;3.23;;;;;;;18.34;83.44;100996.00;123393;1099;104281;-71
2024/04/07 07:29:31;;;;;;;5.73;3.03;;;;;;;18.48;81.39;100997.05;123165;1099;104348;-71
2024/04/07 07:32:02;;;;;;;5.93;3.60;;;;;;;18.75;80.61;100999.98;123345;1099;104400;-72
2024/04/07 07:34:32;;;;;;;6.07;3.20;;;;;;;18.95;80.85;101005.53;123087;1099;104300;-71
2024/04/07 07:37:02;;;;;;;6.30;3.10;;;;;;;18.90;80.48;101009.89;123448;1099;104344;-71
2024/04/07 07:39:33;;;;;;;7.53;3.53;;;;;;;18.75;79.97;101013.27;123139;1099;104373;-73
2024/04/07 07:42:03;;;;;;;8.67;4.00;;;;;;;18.73;78.48;101010.60;123414;1098;104323;-72
2024/04/07 07:44:33;;;;;;;6.10;3.45;;;;;;;18.56;77.50;101014.81;123090;1099;104402;-72
2024/04/07 07:47:04;;;;;;;7.03;3.40;;;;;;;18.58;78.55;101015.75;123338;1099;104223;-72
2024/04/07 07:49:34;;;;;;;6.50;3.50;;;;;;;18.60;77.42;101006.89;123084;1101;104353;-72
2024/04/07 07:52:05;;;;;;;6.77;3.30;;;;;;;18.58;76.76;101021.95;123380;1099;104239;-72
2024/04/07 07:54:35;;;;;;;10.70;4.10;;;;;;;18.59;75.76;101014.85;123078;1099;104361;-73
2024/04/07 07:57:06;;;;;;;5.63;3.17;;;;;;;18.77;76.73;101022.14;123410;1099;104366;-72
2024/04/07 07:59:37;;;;;;;10.43;3.70;;;;;;;18.80;74.83;101015.08;123091;1099;104271;-72
2024/04/07 08:02:07;;;;;;;8.23;3.80;;;;;;;18.79;75.46;101021.30;123145;1099;104360;-73
2024/04/07 08:04:38;;;;;;;8.10;3.60;;;;;;;18.74;74.62;101022.99;123120;1099;104300;-71
2024/04/07 08:07:08;;;;;;;8.33;3.47;;;;;;;18.76;75.63;101013.29;123124;1099;104347;-71
2024/04/07 08:09:38;;;;;;;6.03;3.40;;;;;;;18.82;74.42;101018.67;123070;1099;104849;-71
2024/04/07 08:12:11;;;;;;;8.17;3.33;;;;;;;18.89;75.02;101010.79;123094;1099;104296;-72
2024/04/07 08:14:42;;;;;;;7.17;3.20;;;;;;;18.91;73.57;101012.56;123097;1099;104268;-72
2024/04/07 08:17:12;;;;;;;8.50;3.00;;;;;;;18.97;74.67;101014.41;123125;1099;104312;-72
2024/04/07 08:19:42;;;;;;;8.53;3.27;;;;;;;19.00;72.81;101031.27;123060;1099;104322;-71
2024/04/07 08:22:13;;;;;;;9.83;3.47;;;;;;;19.02;72.48;101024.19;123078;1099;104364;-71
2024/04/07 08:24:43;;;;;;;5.93;3.00;;;;;;;19.04;71.24;101030.44;123114;1099;104287;-73
2024/04/07 08:27:13;;;;;;;7.83;3.00;;;;;;;19.17;72.55;101034.09;123111;1099;104251;-72
2024/04/07 08:29:44;;;;;;;8.57;2.90;;;;;;;19.34;71.89;101031.58;123146;1099;104376;-72
2024/04/07 08:32:14;;;;;;;7.27;3.07;;;;;;;19.45;71.05;101034.32;123181;1099;104288;-71
2024/04/07 08:34:44;;;;;;;4.00;2.57;;;;;;;19.56;70.85;101031.74;123191;1099;104509;-71
2024/04/07 08:37:14;;;;;;;8.50;3.20;;;;;;;19.73;70.50;101035.41;123237;1099;104249;-71
2024/04/07 08:39:46;;;;;;;5.80;2.90;;;;;;;19.72;66.81;101046.92;123366;1099;104242;-71
2024/04/07 08:42:19;;;;;;;6.77;2.60;;;;;;;19.53;66.04;101039.70;123158;1099;104255;-72
2024/04/07 08:44:52;;;;;;;7.03;2.60;;;;;;;19.40;66.36;101036.94;123223;1099;104290;-72
2024/04/07 08:47:23;;;;;;;6.37;2.70;;;;;;;19.40;66.28;101041.39;123388;1099;104315;-72
2024/04/07 08:49:54;;;;;;;6.23;3.03;;;;;;;19.47;66.41;101040.53;123104;1099;104245;-72
2024/04/07 08:52:25;;;;;;;7.43;2.90;;;;;;;19.69;67.37;101038.03;123480;1099;104233;-70
2024/04/07 08:54:56;;;;;;;7.20;2.67;;;;;;;19.85;67.01;101042.62;123484;1099;104319;-72
2024/04/07 08:57:27;;;;;;;6.10;2.80;;;;;;;20.05;66.33;101049.82;123387;1099;104354;-73
2024/04/07 09:00:00;;;;;;;4.80;2.30;;;;;;;20.12;65.55;101048.98;123641;1099;104396;-72
2024/04/07 09:02:33;;;;;;;5.40;2.93;;;;;;;20.02;63.12;101047.14;123444;1098;104239;-72
2024/04/07 09:05:04;;;;;;;5.53;2.72;;;;;;;19.96;64.29;101045.35;123585;1099;104412;-71
2024/04/07 09:07:35;;;;;;;4.30;2.30;;;;;;;19.85;62.56;101055.94;123571;1098;104619;-71
2024/04/07 09:10:06;;;;;;;6.30;2.87;;;;;;;19.73;63.55;101055.82;123346;1099;104272;-71
2024/04/07 09:12:37;;;;;;;5.27;2.50;;;;;;;19.64;63.54;101055.75;123125;1099;104530;-71
2024/04/07 09:15:10;;;;;;;8.57;3.20;;;;;;;19.71;63.38;101052.23;123629;1099;104300;-71
2024/04/07 09:17:40;;;;;;;5.30;2.65;;;;;;;19.85;63.72;101058.60;123422;1099;104303;-72
2024/04/07 09:20:20;;;;;;;5.73;2.40;;;;;;;19.96;63.34;101064.00;123408;1099;104332;-73
2024/04/07 09:22:50;;;;;;;7.50;2.97;;;;;;;20.02;62.83;101063.13;123352;1098;117703;-71
2024/04/07 09:25:21;;;;;;;5.73;2.67;;;;;;;20.01;61.00;101058.70;123311;1099;104319;-72
2024/04/07 09:27:51;;;;;;;7.47;3.00;;;;;;;20.09;59.18;101071.16;123406;1099;104367;-72
2024/04/07 09:30:22;;;;;;;9.10;3.17;;;;;;;20.07;60.81;101061.36;123366;1099;104245;-71
2024/04/07 09:32:53;;;;;;;7.40;2.90;;;;;;;20.03;61.09;101071.13;123410;1099;104239;-71
2024/04/07 09:35:23;;;;;;;7.43;2.53;;;;;;;19.90;60.03;101067.50;123400;1099;104315;-72
2024/04/07 09:37:54;;;;;;;5.55;2.80;;;;;;;19.95;59.16;101064.87;123426;1099;104236;-72
2024/04/07 09:40:26;;;;;;;7.77;3.30;;;;;;;19.98;59.31;101072.88;123082;1098;104223;-72
2024/04/07 09:43:00;;;;;;;5.77;2.63;;;;;;;20.01;59.57;101061.36;123224;1099;105476;-71
2024/04/07 09:45:31;;;;;;;9.40;3.20;;;;;;;20.05;60.28;101063.14;123335;1099;104367;-71
2024/04/07 09:48:03;;;;;;;7.40;2.55;;;;;;;20.16;59.87;101065.86;123370;1099;104305;-71
2024/04/07 09:50:38;;;;;;;5.00;2.67;;;;;;;20.31;59.75;101065.94;123108;1099;104650;-70
2024/04/07 09:53:19;;;;;;;7.40;3.13;;;;;;;20.37;58.53;101075.75;123141;1099;105143;-71
2024/04/07 09:55:52;;;;;;;7.90;2.97;;;;;;;20.46;58.63;101075.80;123117;1099;104271;-71
2024/04/07 09:58:23;;;;;;;4.50;2.30;;;;;;;20.60;58.14;101079.39;123418;1099;104296;-71
2024/04/07 10:00:55;;;;;;;3.93;2.07;;;;;;;20.68;58.14;101074.13;123351;1100;104336;-72
2024/04/07 10:03:25;;;;;;;6.40;3.00;;;;;;;20.61;57.57;101078.48;123633;1099;104344;-71
2024/04/07 10:05:56;;;;;;;6.20;2.75;;;;;;;20.42;55.94;101079.31;123278;1099;104278;-71
2024/04/07 10:08:26;;;;;;;6.17;2.67;;;;;;;20.34;56.73;101076.62;123119;1099;104364;-71
2024/04/07 10:10:57;;;;;;;8.50;2.75;;;;;;;20.36;57.40;101073.96;123207;1099;104321;-72
2024/04/07 10:13:33;;;;;;;7.57;2.83;;;;;;;20.33;57.06;101074.83;123167;1099;104248;-74
2024/04/07 10:16:05;;;;;;;5.23;2.50;;;;;;;20.25;57.20;101072.13;123067;1099;104402;-71
2024/04/07 10:18:37;;;;;;;3.47;2.20;;;;;;;20.37;56.00;101070.42;123297;1098;104370;-71
2024/04/07 10:21:10;;;;;;;5.53;2.00;;;;;;;20.51;56.41;101073.15;123463;1099;104274;-71
2024/04/07 10:23:42;;;;;;;3.27;2.02;;;;;;;20.49;56.44;101078.47;123467;1099;105707;-71
2024/04/07 10:26:16;;;;;;;3.80;2.00;;;;;;;20.46;56.15;101081.13;123338;1099;104335;-71
2024/04/07 10:28:53;;;;;;;4.47;2.30;;;;;;;20.39;56.43;101080.19;123401;1099;104534;-72
2024/04/07 10:31:27;;;;;;;4.10;2.00;;;;;;;20.33;55.31;101089.94;123499;1099;104268;-72
2024/04/07 10:33:58;;;;;;;2.70;1.70;;;;;;;20.21;54.71;101085.42;123347;1099;104247;-72
2024/04/07 10:36:28;;;;;;;5.40;2.07;;;;;;;20.33;54.22;101084.60;123346;1099;104320;-71
2024/04/07 10:38:58;;;;;;;5.07;1.87;;;;;;;20.44;53.74;101081.12;123283;1099;104421;-71
2024/04/07 10:41:31;;;;;;;3.63;1.83;;;;;;;20.39;53.55;101084.64;123435;1099;104383;-71
2024/04/07 10:44:03;;;;;;;4.97;1.90;;;;;;;20.48;54.42;101085.55;123116;1099;104313;-72
2024/04/07 10:46:34;;;;;;;3.07;1.83;;;;;;;20.41;52.79;101094.44;123400;1099;104376;-71
2024/04/07 10:49:04;;;;;;;3.10;1.80;;;;;;;20.35;53.00;101094.40;123355;1099;104239;-72
2024/04/07 10:51:36;;;;;;;5.87;1.77;;;;;;;20.43;52.87;101081.11;123307;1099;104376;-70
2024/04/07 10:54:08;;;;;;;2.67;1.73;;;;;;;20.59;52.02;101084.72;123620;1099;104349;-71
2024/04/07 10:56:38;;;;;;;3.63;1.97;;;;;;;20.72;51.68;101078.56;123952;1099;104351;-71
2024/04/07 10:59:09;;;;;;;2.70;1.83;;;;;;;20.91;53.15;101075.95;123681;1099;104319;-71
2024/04/07 11:01:39;;;;;;;3.20;2.00;;;;;;;21.05;52.47;101082.22;123353;1099;104233;-70
2024/04/07 11:04:10;;;;;;;4.17;1.83;;;;;;;21.05;51.87;101084.89;123530;1099;104393;-71
2024/04/07 11:06:41;;;;;;;2.87;2.30;;;;;;;21.05;51.54;101071.55;123354;1099;104387;-71
2024/04/07 11:09:12;;;;;;;4.37;1.97;;;;;;;21.16;51.77;101068.87;123452;1099;104341;-71
2024/04/07 11:11:46;;;;;;;4.97;2.13;;;;;;;21.26;50.51;101064.45;123077;1099;104714;-71
2024/04/07 11:14:17;;;;;;;4.43;2.10;;;;;;;21.36;49.76;101076.89;123300;1099;104268;-71
2024/04/07 11:16:51;;;;;;;3.87;1.80;;;;;;;21.32;50.31;101069.80;123447;1099;104347;-72
2024/04/07 11:19:24;;;;;;;5.50;2.07;;;;;;;21.36;50.66;101060.87;123385;1099;104395;-71
2024/04/07 11:21:55;;;;;;;4.80;2.30;;;;;;;21.44;51.03;101064.46;123514;1099;104239;-72
2024/04/07 11:24:25;;;;;;;2.37;1.60;;;;;;;21.44;49.54;101074.23;123400;1099;104255;-71
2024/04/07 11:26:56;;;;;;;4.07;1.60;;;;;;;21.43;49.33;101072.47;123117;1099;104242;-71